createdAt,value
2023-01-11T02:19:37.641Z,6.90
2023-01-11T02:22:26.611Z,6.30
2023-01-11T02:25:01.020Z,6.70
2023-01-11T02:27:57.202Z,6.90
2023-01-11T02:30:33.387Z,6.30
2023-01-11T02:33:14.969Z,7.30
2023-01-11T02:35:57.278Z,6.20
2023-01-11T02:38:44.752Z,6.40
2023-01-11T02:41:52.958Z,6.30
2023-01-11T02:45:01.549Z,7.00
2023-01-11T02:47:40.043Z,6.40
2023-01-11T02:50:42.728Z,6.80
2023-01-11T02:53:21.344Z,8.40
2023-01-11T02:55:51.917Z,6.00
2023-01-11T02:58:19.699Z,7.10
2023-01-11T03:00:46.640Z,6.50
2023-01-11T03:03:18.318Z,6.40
2023-01-11T03:05:47.118Z,6.40
2023-01-11T03:08:40.782Z,6.20
2023-01-11T03:11:14.579Z,5.70
2023-01-11T03:13:50.676Z,7.00
2023-01-11T03:16:39.415Z,5.60
2023-01-11T03:19:19.967Z,5.60
2023-01-11T03:21:57.367Z,5.50
2023-01-11T03:24:42.328Z,6.30
2023-01-11T03:27:29.507Z,6.10
2023-01-11T03:30:16.416Z,5.30
2023-01-11T03:32:51.414Z,5.60
2023-01-11T03:35:31.156Z,5.80
2023-01-11T03:38:01.471Z,5.80
2023-01-11T03:40:32.818Z,5.90
2023-01-11T03:43:14.102Z,5.30
2023-01-11T03:46:33.272Z,6.20
2023-01-11T03:49:00.142Z,5.90
2023-01-11T03:51:28.528Z,5.40
2023-01-11T03:54:00.413Z,5.90
2023-01-11T03:56:40.295Z,5.50
2023-01-11T03:59:07.182Z,6.00
2023-01-11T04:01:34.085Z,5.20
2023-01-11T04:04:00.993Z,6.10
2023-01-11T04:06:28.000Z,6.00
2023-01-11T04:08:54.874Z,6.90
2023-01-11T04:11:21.770Z,6.40
2023-01-11T04:13:48.687Z,6.20
2023-01-11T04:16:15.703Z,5.50
2023-01-11T04:18:42.724Z,5.50
2023-01-11T04:21:09.703Z,6.70
2023-01-11T04:23:36.627Z,6.50
2023-01-11T04:26:03.688Z,4.80
2023-01-11T04:28:30.545Z,5.60
2023-01-11T04:30:57.438Z,5.50
2023-01-11T04:33:24.304Z,6.10
2023-01-11T04:35:51.263Z,6.90
2023-01-11T04:38:18.988Z,5.90
2023-01-11T04:40:47.901Z,6.50
2023-01-11T04:43:14.767Z,6.00
2023-01-11T04:45:41.632Z,6.00
2023-01-11T04:48:08.544Z,5.80
2023-01-11T04:50:37.160Z,5.30
2023-01-11T04:53:04.555Z,5.80
2023-01-11T04:55:31.462Z,6.30
2023-01-11T04:57:58.433Z,5.60
2023-01-11T05:00:25.321Z,5.80
2023-01-11T05:02:52.173Z,5.90
2023-01-11T05:05:19.048Z,5.30
2023-01-11T05:07:46.016Z,5.40
2023-01-11T05:10:12.992Z,5.60
2023-01-11T05:12:41.276Z,6.60
2023-01-11T05:15:08.878Z,6.20
2023-01-11T05:17:35.827Z,5.60
2023-01-11T05:20:02.802Z,6.10
2023-01-11T05:22:29.735Z,5.50
2023-01-11T05:24:56.658Z,6.90
2023-01-11T05:27:24.290Z,6.40
2023-01-11T05:29:51.155Z,6.70
2023-01-11T05:32:18.014Z,7.20
2023-01-11T05:34:44.935Z,7.00
2023-01-11T05:37:11.835Z,8.50
2023-01-11T05:39:38.763Z,6.20
2023-01-11T05:42:05.690Z,7.90
2023-01-11T05:44:51.269Z,7.20
2023-01-11T05:47:18.142Z,6.10
2023-01-11T05:49:45.093Z,6.40
2023-01-11T05:52:12.021Z,10.00
2023-01-11T05:54:38.925Z,6.70
2023-01-11T05:57:10.651Z,7.80
2023-01-11T05:59:37.516Z,7.10
2023-01-11T06:02:04.528Z,7.10
2023-01-11T12:38:30.055Z,12.40
2023-01-11T12:41:00.185Z,11.20
2023-01-11T12:43:48.542Z,12.00
2023-01-11T12:46:43.645Z,12.80
2023-01-11T12:49:25.480Z,10.70
2023-01-11T12:52:11.907Z,11.10
2023-01-11T12:55:01.875Z,12.00
2023-01-11T12:57:37.323Z,16.00
2023-01-11T13:00:16.520Z,13.00
2023-01-11T13:02:55.745Z,14.10
2023-01-11T13:05:25.716Z,14.30
2023-01-11T13:08:15.685Z,12.80
2023-01-11T13:11:51.843Z,13.20
2023-01-11T13:14:34.180Z,11.90
2023-01-11T13:17:18.710Z,12.00
2023-01-11T13:20:03.615Z,11.50
2023-01-11T13:22:33.741Z,11.30
2023-01-11T13:25:01.967Z,12.50
2023-01-11T13:27:29.024Z,12.20
2023-01-11T13:29:56.099Z,11.60
2023-01-11T13:32:24.864Z,10.20
2023-01-11T13:35:25.172Z,10.90
2023-01-11T13:38:20.809Z,12.80
2023-01-11T13:40:49.977Z,13.00
2023-01-11T13:43:22.962Z,11.60
2023-01-11T13:45:55.779Z,10.90
2023-01-11T13:48:25.729Z,9.70
2023-01-11T13:51:19.935Z,10.80
2023-01-11T13:54:01.969Z,10.30
2023-01-11T13:56:36.678Z,10.60
2023-01-11T13:59:19.548Z,11.30
2023-01-11T14:01:59.302Z,11.90
2023-01-11T14:04:47.224Z,12.80
2023-01-11T14:07:20.614Z,12.00
2023-01-11T18:36:37.410Z,16.10
2023-01-11T18:39:10.388Z,17.80
2023-01-11T18:41:56.039Z,16.20
2023-01-11T18:44:22.909Z,16.70
2023-01-11T18:46:49.809Z,15.30
2023-01-11T18:49:16.811Z,17.10
2023-01-11T18:51:45.352Z,15.10
2023-01-11T18:54:15.548Z,18.90
2023-01-11T18:56:42.823Z,39.50
2023-01-11T18:59:09.756Z,19.00
2023-01-11T19:01:52.614Z,25.60
2023-01-11T19:04:23.329Z,22.30
2023-01-11T19:06:52.537Z,16.00
2023-01-11T19:09:19.471Z,18.10
2023-01-11T19:11:46.428Z,16.70
2023-01-11T19:14:13.390Z,17.90
2023-01-11T19:16:40.311Z,15.70
2023-01-11T19:19:07.290Z,14.20
2023-01-11T19:21:34.293Z,15.90
2023-01-11T19:24:01.227Z,14.20
2023-01-11T19:26:28.448Z,13.90
2023-01-11T19:31:57.966Z,12.20
2023-01-11T19:34:24.973Z,13.70
2023-01-11T19:36:51.964Z,15.60
2023-01-11T19:39:19.230Z,15.00
2023-01-11T19:41:55.326Z,17.10
2023-01-11T19:44:37.175Z,14.00
2023-01-11T19:47:11.547Z,14.60
2023-01-11T19:49:40.392Z,14.90
2023-01-11T19:52:13.554Z,13.10
2023-01-11T19:54:42.308Z,14.10
2023-01-11T19:57:14.434Z,12.80
2023-01-11T19:59:41.927Z,14.50
2023-01-11T20:02:11.051Z,12.80
2023-01-11T20:04:38.025Z,13.70
2023-01-11T20:07:05.615Z,13.70
2023-01-11T20:09:32.530Z,13.00
2023-01-11T20:11:59.738Z,12.00
2023-01-11T20:14:26.915Z,12.30
2023-01-11T20:16:54.093Z,13.00
2023-01-11T20:19:22.354Z,12.70
2023-01-11T20:21:49.292Z,14.00
2023-01-11T20:24:16.950Z,13.30
2023-01-11T20:26:46.612Z,11.20
2023-01-11T20:29:13.617Z,12.00
2023-01-11T20:31:40.662Z,16.90
2023-01-11T20:34:10.873Z,11.00
2023-01-11T20:36:37.812Z,10.00
2023-01-11T20:39:04.984Z,11.80
2023-01-11T20:41:47.322Z,11.20
2023-01-11T20:44:23.979Z,11.60
2023-01-11T20:46:51.717Z,12.00
2023-01-11T20:49:18.847Z,11.80
2023-01-11T20:51:46.181Z,12.90
2023-01-11T20:54:13.607Z,11.70
